Аэропорт: Сыктывкар. Сыктывкар

ICAO: UUYY

METAR:
2018/11/19 10:00
UUYY 191000Z 36004MPS 9999 OVC009 M04/M06 Q1029 R36/450244 NOSIG RMK QFE762/1016
METAR:
2018/11/19 09:24
TAF TAF UUYY 190800Z 1909/2009 35005G10MPS 9999 BKN011 BKN015CB 
      TEMPO 1909/1918 32006MPS 3100 -SHSN BR FEW007 BKN012CB 
     FM191800 26003G08MPS 6000 BKN011 BKN015CB 
      TEMPO 1918/2003 28006MPS 3100 -SHSN BR FEW005 BKN012CB 
      TEMPO 2003/2009 27006G12MPS 3100 -SHSN FEW007 BKN012CB